createdAt,value
2023-11-21T00:00:02.301Z,86.18
2023-11-21T00:02:29.727Z,86.20
2023-11-21T00:04:57.096Z,76.70
2023-11-21T00:07:24.492Z,78.45
2023-11-21T00:09:52.234Z,85.78
2023-11-21T00:12:19.533Z,86.25
2023-11-21T00:14:46.948Z,80.97
2023-11-21T00:17:14.353Z,85.37
2023-11-21T00:19:41.782Z,93.10
2023-11-21T00:22:10.097Z,92.43
2023-11-21T00:24:37.401Z,81.10
2023-11-21T00:27:04.836Z,122.45
2023-11-21T00:29:32.238Z,104.00
2023-11-21T00:31:59.681Z,102.57
2023-11-21T00:34:27.091Z,100.47
2023-11-21T00:36:55.633Z,107.78
2023-11-21T00:39:22.992Z,91.28
2023-11-21T00:41:50.317Z,141.53
2023-11-21T00:44:17.648Z,104.13
2023-11-21T00:46:45.055Z,100.20
2023-11-21T00:49:12.399Z,78.68
2023-11-21T00:51:39.748Z,88.35
2023-11-21T00:54:07.901Z,88.30
2023-11-21T00:56:35.212Z,109.18
2023-11-21T00:59:02.535Z,79.38
2023-11-21T01:01:29.959Z,95.80
2023-11-21T01:03:57.303Z,84.57
2023-11-21T01:06:24.603Z,104.83
2023-11-21T01:08:51.902Z,85.93
2023-11-21T01:11:19.365Z,84.45
2023-11-21T01:13:46.802Z,125.28
2023-11-21T01:16:14.213Z,88.05
2023-11-21T01:18:41.629Z,108.63
2023-11-21T01:21:10.136Z,89.80
2023-11-21T01:23:37.612Z,132.82
2023-11-21T01:26:04.949Z,106.53
2023-11-21T01:28:32.380Z,78.22
2023-11-21T01:30:59.783Z,111.50
2023-11-21T01:33:27.254Z,75.07
2023-11-21T01:35:56.104Z,73.18
2023-11-21T01:38:23.542Z,91.45
2023-11-21T01:40:50.963Z,67.43
2023-11-21T01:43:22.712Z,79.83
2023-11-21T01:45:50.229Z,74.25
2023-11-21T01:48:17.914Z,89.13
2023-11-21T01:50:46.104Z,70.38
2023-11-21T01:53:14.335Z,73.05
2023-11-21T01:55:43.043Z,79.97
2023-11-21T01:58:10.467Z,64.55
2023-11-21T02:00:39.675Z,93.45
2023-11-21T02:03:08.536Z,78.13
2023-11-21T02:05:36.075Z,85.68
2023-11-21T02:08:04.398Z,87.77
2023-11-21T02:10:32.535Z,77.03
2023-11-21T02:13:01.331Z,73.38
2023-11-21T02:15:30.187Z,92.43
2023-11-21T02:17:59.702Z,128.45
2023-11-21T02:20:27.661Z,78.80
2023-11-21T02:22:59.597Z,92.82
2023-11-21T02:25:30.913Z,73.45
2023-11-21T02:27:59.339Z,75.40
2023-11-21T02:30:26.752Z,97.63
2023-11-21T02:32:54.367Z,94.30
2023-11-21T02:35:26.952Z,83.75
2023-11-21T02:37:54.840Z,86.43
2023-11-21T02:40:22.743Z,86.45
2023-11-21T02:42:53.734Z,75.35
2023-11-21T02:45:22.378Z,93.25
2023-11-21T02:47:54.795Z,84.03
2023-11-21T02:50:24.095Z,71.78
2023-11-21T02:52:52.727Z,72.35
2023-11-21T02:55:21.701Z,71.72
2023-11-21T02:57:49.207Z,92.97
2023-11-21T03:00:17.268Z,79.68
2023-11-21T03:02:46.052Z,74.10
2023-11-21T03:05:13.435Z,76.10
2023-11-21T03:07:41.353Z,141.60
2023-11-21T03:10:13.166Z,95.20
2023-11-21T03:12:41.003Z,90.20
2023-11-21T03:15:08.998Z,64.83
2023-11-21T03:17:36.505Z,67.03
2023-11-21T03:20:05.715Z,120.18
2023-11-21T03:22:35.955Z,84.75
2023-11-21T03:25:04.189Z,72.97
2023-11-21T03:27:31.488Z,92.10
2023-11-21T03:29:58.760Z,70.70
2023-11-21T03:32:26.101Z,101.88
2023-11-21T03:34:58.137Z,60.28
2023-11-21T03:37:29.393Z,88.80
2023-11-21T03:39:58.222Z,59.90
2023-11-21T03:42:28.877Z,91.05
2023-11-21T03:44:56.230Z,57.92
2023-11-21T03:47:23.706Z,63.72
2023-11-21T03:49:51.185Z,58.75
2023-11-21T03:52:18.733Z,77.40
2023-11-21T03:54:46.203Z,68.25
2023-11-21T03:57:13.624Z,110.07
2023-11-21T03:59:42.239Z,59.90
2023-11-21T04:02:09.660Z,62.88
2023-11-21T04:04:37.441Z,80.87
2023-11-21T04:07:05.461Z,58.35
2023-11-21T04:09:32.894Z,67.07
2023-11-21T04:12:00.379Z,61.25
2023-11-21T04:14:27.786Z,59.78
2023-11-21T04:16:55.332Z,54.80
2023-11-21T04:19:23.019Z,55.75
2023-11-21T04:21:50.518Z,65.30
2023-11-21T04:24:17.853Z,53.08
2023-11-21T04:26:45.639Z,61.28
2023-11-21T04:29:13.049Z,52.67
2023-11-21T04:31:40.410Z,63.90
2023-11-21T04:34:07.852Z,68.63
2023-11-21T04:36:36.151Z,74.90
2023-11-21T04:39:03.758Z,65.20
2023-11-21T04:41:32.913Z,65.43
2023-11-21T04:44:01.880Z,63.85
2023-11-21T04:46:29.614Z,66.72
2023-11-21T04:48:56.965Z,59.45
2023-11-21T04:51:24.313Z,58.83
2023-11-21T04:53:51.610Z,59.93
2023-11-21T04:56:18.963Z,57.22
2023-11-21T04:58:46.692Z,58.58
2023-11-21T05:01:14.193Z,57.47
2023-11-21T05:03:42.329Z,51.58
2023-11-21T05:06:12.488Z,56.27
2023-11-21T05:08:39.846Z,51.00
2023-11-21T05:11:08.485Z,46.60
2023-11-21T05:13:36.073Z,53.70
2023-11-21T05:16:05.478Z,51.55
2023-11-21T05:18:32.920Z,59.97
2023-11-21T05:21:00.311Z,53.80
2023-11-21T05:23:27.739Z,56.20
2023-11-21T05:25:55.138Z,48.47
2023-11-21T05:28:22.538Z,55.20
2023-11-21T05:30:53.849Z,47.33
2023-11-21T05:33:26.508Z,48.92
2023-11-21T05:35:53.864Z,42.78
2023-11-21T05:38:23.384Z,46.03
2023-11-21T05:40:51.112Z,45.38
2023-11-21T05:43:19.161Z,41.80
2023-11-21T05:45:46.577Z,38.38
2023-11-21T05:48:13.964Z,44.20
2023-11-21T05:50:41.280Z,47.92
2023-11-21T05:53:10.626Z,54.38
2023-11-21T05:55:38.210Z,41.33
2023-11-21T05:58:05.889Z,43.17
2023-11-21T06:00:33.821Z,41.88
2023-11-21T06:03:01.513Z,34.58
2023-11-21T06:05:28.901Z,37.22
2023-11-21T06:08:00.204Z,41.93
2023-11-21T06:10:28.727Z,35.83
2023-11-21T06:12:56.238Z,37.65
2023-11-21T06:15:24.786Z,34.50
2023-11-21T06:17:56.381Z,36.60
2023-11-21T06:20:24.476Z,34.47
2023-11-21T06:22:52.716Z,35.92
2023-11-21T06:25:20.382Z,36.10
2023-11-21T06:27:48.993Z,34.28
2023-11-21T06:30:16.663Z,31.25
2023-11-21T06:32:47.862Z,28.10
2023-11-21T06:35:17.429Z,28.45
2023-11-21T06:37:49.705Z,26.05
2023-11-21T06:40:20.282Z,26.90
2023-11-21T06:42:48.579Z,28.38
2023-11-21T06:45:19.866Z,29.57
2023-11-21T06:47:47.623Z,31.88
2023-11-21T06:50:15.412Z,27.73
2023-11-21T06:52:45.187Z,30.23
2023-11-21T06:55:12.834Z,29.30
2023-11-21T06:57:40.122Z,30.83
2023-11-21T07:00:11.040Z,31.48
2023-11-21T07:02:44.071Z,34.83
2023-11-21T07:08:23.750Z,35.58
2023-11-21T07:10:54.543Z,40.13
2023-11-21T07:13:25.410Z,37.00
2023-11-21T07:15:58.601Z,43.30
2023-11-21T07:18:25.953Z,42.78
2023-11-21T07:20:53.405Z,43.05
2023-11-21T07:23:20.806Z,44.83
2023-11-21T07:25:48.837Z,44.63
2023-11-21T07:28:16.494Z,41.35
2023-11-21T07:30:44.111Z,42.53
2023-11-21T07:33:11.830Z,40.15
2023-11-21T07:35:39.333Z,43.60
2023-11-21T07:38:06.959Z,53.90
2023-11-21T07:40:34.557Z,44.47
2023-11-21T07:43:01.871Z,42.83
2023-11-21T07:45:29.514Z,50.30
2023-11-21T07:48:01.943Z,47.07
2023-11-21T07:50:29.370Z,42.55
2023-11-21T07:52:56.917Z,42.70
2023-11-21T07:55:51.973Z,41.33
2023-11-21T07:58:44.210Z,33.95
2023-11-21T08:02:32.516Z,33.33
2023-11-21T08:05:00.089Z,31.25
2023-11-21T08:07:27.811Z,36.58
2023-11-21T08:09:55.382Z,33.65
2023-11-21T08:12:22.710Z,32.65
2023-11-21T08:14:50.063Z,37.13
2023-11-21T08:17:18.654Z,38.78
2023-11-21T08:19:50.377Z,38.53
2023-11-21T08:22:19.830Z,41.80
2023-11-21T08:24:48.067Z,37.25
2023-11-21T08:27:17.010Z,45.67
2023-11-21T08:29:44.509Z,39.88
2023-11-21T08:32:11.952Z,38.28
2023-11-21T08:34:41.288Z,34.83
2023-11-21T08:37:08.852Z,38.05
2023-11-21T08:39:45.522Z,35.70
2023-11-21T08:42:14.659Z,37.03
2023-11-21T08:44:42.550Z,32.88
2023-11-21T08:47:10.041Z,42.55
2023-11-21T08:49:37.843Z,39.80
2023-11-21T08:52:20.472Z,38.33
2023-11-21T08:54:57.253Z,37.63
2023-11-21T08:57:33.890Z,40.03
2023-11-21T09:00:01.341Z,43.15
2023-11-21T09:02:28.737Z,41.53
2023-11-21T09:04:56.155Z,39.83
2023-11-21T09:07:26.909Z,33.88
2023-11-21T09:09:54.320Z,35.55
2023-11-21T09:12:28.970Z,36.13
2023-11-21T09:15:19.102Z,39.33
2023-11-21T09:17:50.966Z,34.17
2023-11-21T09:20:18.426Z,36.60
2023-11-21T09:22:49.537Z,36.65
2023-11-21T09:25:17.230Z,39.70
2023-11-21T09:27:44.683Z,40.63
2023-11-21T09:30:12.882Z,36.97
2023-11-21T09:32:41.971Z,32.38
2023-11-21T09:35:10.098Z,37.85
2023-11-21T09:37:39.276Z,41.00
2023-11-21T09:40:13.745Z,43.42
2023-11-21T09:42:45.311Z,40.90
2023-11-21T09:45:29.953Z,38.13
2023-11-21T09:47:57.919Z,38.92
2023-11-21T09:50:25.772Z,33.45
2023-11-21T09:52:59.265Z,42.15
2023-11-21T09:55:30.883Z,44.00
2023-11-21T09:57:59.001Z,37.47
2023-11-21T10:00:26.634Z,35.40
2023-11-21T10:02:56.636Z,34.25
2023-11-21T10:05:27.535Z,35.95
2023-11-21T10:07:58.802Z,33.63
2023-11-21T10:10:26.622Z,29.85
2023-11-21T10:12:56.641Z,34.65
2023-11-21T10:15:24.559Z,32.80
2023-11-21T10:17:54.394Z,34.33
2023-11-21T10:20:22.172Z,28.50
2023-11-21T10:22:50.790Z,34.45
2023-11-21T10:25:21.531Z,40.85
2023-11-21T10:27:51.684Z,30.73
2023-11-21T10:30:19.283Z,34.33
2023-11-21T10:32:47.905Z,40.65
2023-11-21T10:35:18.017Z,42.55
2023-11-21T10:37:45.703Z,40.00
2023-11-21T10:40:18.877Z,39.70
2023-11-21T10:42:46.451Z,38.33
2023-11-21T10:45:16.718Z,39.35
2023-11-21T10:47:45.185Z,34.75
2023-11-21T10:50:13.042Z,41.30
2023-11-21T10:52:42.442Z,38.47
2023-11-21T10:55:23.339Z,38.28
2023-11-21T10:57:52.288Z,32.85
2023-11-21T11:00:22.744Z,38.03
2023-11-21T11:02:52.539Z,38.45
2023-11-21T11:08:28.776Z,40.45
2023-11-21T11:11:00.044Z,40.60
2023-11-21T11:13:27.497Z,41.72
2023-11-21T11:16:08.352Z,38.65
2023-11-21T11:18:35.925Z,37.08
2023-11-21T11:21:30.772Z,32.60
2023-11-21T11:24:12.907Z,28.83
2023-11-21T11:26:52.952Z,27.95
2023-11-21T11:29:32.277Z,30.20
2023-11-21T11:32:11.420Z,30.42
2023-11-21T11:34:43.898Z,29.02
2023-11-21T11:37:16.718Z,33.97
2023-11-21T11:40:09.188Z,30.30
2023-11-21T11:42:36.002Z,28.75
2023-11-21T11:45:05.591Z,26.75
2023-11-21T11:47:47.674Z,31.10
2023-11-21T11:50:35.698Z,36.40
2023-11-21T11:53:16.291Z,30.48
2023-11-21T11:55:43.733Z,31.20
2023-11-21T11:58:11.345Z,27.05
2023-11-21T12:00:41.234Z,29.70
2023-11-21T12:03:09.697Z,29.50
2023-11-21T12:05:39.880Z,26.75
2023-11-21T12:08:08.612Z,29.38
2023-11-21T12:10:37.689Z,28.00
2023-11-21T12:13:11.285Z,31.85
2023-11-21T12:15:40.130Z,29.55
2023-11-21T12:18:41.245Z,29.65
2023-11-21T12:21:11.091Z,28.85
2023-11-21T12:23:38.531Z,25.77
2023-11-21T12:26:06.304Z,27.60
2023-11-21T12:28:35.402Z,25.30
2023-11-21T12:31:15.528Z,26.33
2023-11-21T12:34:03.181Z,31.02
2023-11-21T12:36:33.776Z,29.95
2023-11-21T12:39:01.602Z,29.33
2023-11-21T12:41:33.193Z,26.87
2023-11-21T12:44:13.164Z,26.70
2023-11-21T12:46:48.397Z,30.15
2023-11-21T12:53:00.243Z,29.63
2023-11-21T12:55:31.264Z,28.43
2023-11-21T12:58:07.103Z,28.85
2023-11-21T13:00:38.491Z,26.25
2023-11-21T13:03:07.138Z,27.98
2023-11-21T13:05:36.095Z,30.75
2023-11-21T13:08:04.626Z,30.88
2023-11-21T13:10:32.631Z,34.03
2023-11-21T13:13:06.396Z,32.10
2023-11-21T13:15:44.244Z,30.35
2023-11-21T13:18:27.187Z,37.13
2023-11-21T13:20:56.254Z,36.47
2023-11-21T13:23:45.280Z,32.58
2023-11-21T13:26:14.681Z,31.90
2023-11-21T13:28:49.822Z,33.97
2023-11-21T13:31:27.162Z,33.70
2023-11-21T13:33:58.098Z,34.00
2023-11-21T13:36:57.186Z,33.70
2023-11-21T13:39:25.010Z,33.97
2023-11-21T13:41:56.358Z,37.72
2023-11-21T13:44:36.088Z,33.17
2023-11-21T13:47:03.760Z,32.15
2023-11-21T13:49:36.564Z,39.80
2023-11-21T13:52:09.182Z,38.55
2023-11-21T13:54:36.656Z,36.60
2023-11-21T13:57:07.793Z,40.15
2023-11-21T13:59:35.237Z,36.17
2023-11-21T14:02:17.895Z,36.08
2023-11-21T14:04:56.211Z,33.63
2023-11-21T14:07:37.164Z,31.13
2023-11-21T14:10:06.265Z,32.38
2023-11-21T14:12:38.357Z,33.53
2023-11-21T14:15:10.929Z,32.80
2023-11-21T14:17:41.008Z,32.80
2023-11-21T14:20:15.766Z,29.08
2023-11-21T14:22:43.481Z,34.47
2023-11-21T14:25:12.681Z,28.75
2023-11-21T14:27:40.114Z,35.28
2023-11-21T14:30:08.045Z,30.27
2023-11-21T14:32:36.229Z,32.63
2023-11-21T14:35:04.873Z,33.08
2023-11-21T14:37:32.312Z,32.75
2023-11-21T14:39:59.660Z,31.85
2023-11-21T14:42:30.831Z,33.20
2023-11-21T14:45:04.060Z,30.85
2023-11-21T14:47:31.457Z,28.17
2023-11-21T14:50:01.189Z,30.13
2023-11-21T14:52:36.366Z,31.52
2023-11-21T14:55:22.108Z,27.73
2023-11-21T14:57:52.290Z,31.30
2023-11-21T15:00:53.052Z,29.73
2023-11-21T15:03:46.584Z,28.03
2023-11-21T15:06:20.977Z,26.55
2023-11-21T15:09:09.127Z,27.55
2023-11-21T15:11:38.075Z,30.00
2023-11-21T15:14:10.320Z,26.10
2023-11-21T15:16:43.954Z,26.13
2023-11-21T15:19:13.347Z,24.45
2023-11-21T15:21:40.700Z,27.75
2023-11-21T15:24:08.196Z,27.50
2023-11-21T15:26:35.529Z,25.75
2023-11-21T15:29:02.944Z,29.30
2023-11-21T15:35:32.889Z,28.33
2023-11-21T15:38:00.814Z,33.53
2023-11-21T15:40:28.608Z,34.08
2023-11-21T15:42:56.090Z,33.72
2023-11-21T15:45:26.167Z,33.28
2023-11-21T15:47:58.482Z,34.17
2023-11-21T15:50:29.049Z,34.60
2023-11-21T15:52:58.161Z,36.28
2023-11-21T15:55:26.532Z,35.47
2023-11-21T15:57:53.884Z,35.80
2023-11-21T16:00:23.833Z,33.85
2023-11-21T16:02:51.670Z,38.33
2023-11-21T16:05:19.345Z,34.20
2023-11-21T16:07:47.532Z,35.03
2023-11-21T16:10:17.645Z,33.90
2023-11-21T16:12:44.969Z,34.67
2023-11-21T16:15:13.050Z,41.80
2023-11-21T16:17:40.660Z,42.85
2023-11-21T16:20:10.640Z,36.13
2023-11-21T16:22:38.857Z,34.67
2023-11-21T16:25:11.917Z,36.13
2023-11-21T16:27:39.674Z,36.22
2023-11-21T16:30:10.917Z,39.78
2023-11-21T16:32:38.576Z,38.30
2023-11-21T16:35:06.455Z,34.47
2023-11-21T16:37:33.797Z,40.20
2023-11-21T16:40:01.321Z,40.00
2023-11-21T16:42:30.851Z,41.40
2023-11-21T16:44:58.576Z,48.23
2023-11-21T16:47:28.857Z,41.55
2023-11-21T16:49:57.913Z,48.92
2023-11-21T16:52:25.364Z,53.55
2023-11-21T16:54:52.837Z,45.33
2023-11-21T16:57:20.240Z,44.40
2023-11-21T16:59:51.677Z,49.70
2023-11-21T17:02:20.275Z,47.28
2023-11-21T17:04:50.265Z,52.10
2023-11-21T17:07:18.547Z,50.05
2023-11-21T17:09:45.928Z,47.47
2023-11-21T17:12:13.233Z,43.33
2023-11-21T17:14:43.125Z,45.10
2023-11-21T17:17:11.510Z,47.25
2023-11-21T17:19:40.595Z,53.08
2023-11-21T17:22:09.097Z,47.97
2023-11-21T17:24:37.524Z,55.10
2023-11-21T17:27:05.760Z,57.42
2023-11-21T17:29:33.137Z,53.50
2023-11-21T17:32:00.844Z,53.90
2023-11-21T17:34:29.233Z,54.70
2023-11-21T17:36:56.866Z,60.38
2023-11-21T17:39:24.476Z,50.42
2023-11-21T17:41:51.894Z,57.80
2023-11-21T17:44:19.238Z,53.33
2023-11-21T17:46:46.665Z,54.70
2023-11-21T17:49:14.058Z,59.50
2023-11-21T17:51:42.310Z,59.35
2023-11-21T17:54:09.910Z,53.55
2023-11-21T17:56:37.604Z,59.40
2023-11-21T17:59:05.703Z,62.87
2023-11-21T18:01:40.001Z,50.35
2023-11-21T18:04:08.327Z,50.17
2023-11-21T18:06:35.759Z,47.50
2023-11-21T18:09:04.741Z,51.50
2023-11-21T18:11:32.154Z,55.47
2023-11-21T18:13:59.556Z,47.38
2023-11-21T18:16:27.320Z,46.13
2023-11-21T18:18:54.829Z,46.20
2023-11-21T18:21:22.163Z,43.30
2023-11-21T18:23:49.622Z,46.47
2023-11-21T18:26:20.164Z,45.05
2023-11-21T18:28:47.772Z,42.08
2023-11-21T18:31:16.293Z,40.95
2023-11-21T18:33:44.835Z,44.85
2023-11-21T18:36:12.235Z,42.60
2023-11-21T18:38:39.900Z,44.53
2023-11-21T18:41:07.367Z,46.83
2023-11-21T18:43:34.688Z,41.70
2023-11-21T18:46:03.721Z,43.53
2023-11-21T18:48:31.287Z,50.60
2023-11-21T18:50:58.638Z,50.08
2023-11-21T18:53:26.776Z,51.38
2023-11-21T18:55:54.173Z,49.35
2023-11-21T18:58:21.524Z,47.88
2023-11-21T19:00:48.858Z,41.00
2023-11-21T19:03:16.280Z,42.22
2023-11-21T19:05:43.744Z,42.50
2023-11-21T19:08:11.138Z,37.90
2023-11-21T19:10:38.578Z,37.17
2023-11-21T19:13:23.142Z,44.17
2023-11-21T19:15:50.452Z,37.63
2023-11-21T19:18:17.852Z,38.20
2023-11-21T19:20:45.442Z,33.25
2023-11-21T19:23:12.829Z,38.35
2023-11-21T19:25:40.261Z,36.43
2023-11-21T19:28:07.593Z,36.42
2023-11-21T19:30:36.101Z,39.33
2023-11-21T19:33:06.901Z,39.72
2023-11-21T19:35:40.341Z,37.70
2023-11-21T19:38:07.747Z,37.33
2023-11-21T19:40:35.580Z,40.85
2023-11-21T19:43:03.771Z,39.90
2023-11-21T19:45:32.502Z,43.20
2023-11-21T19:47:59.965Z,38.15
2023-11-21T19:50:27.539Z,37.27
2023-11-21T19:52:54.873Z,33.92
2023-11-21T19:55:22.178Z,34.53
2023-11-21T19:57:49.892Z,38.65
2023-11-21T20:00:17.773Z,31.67
2023-11-21T20:02:45.397Z,30.83
2023-11-21T20:05:16.402Z,34.25
2023-11-21T20:07:44.277Z,32.55
2023-11-21T20:10:11.902Z,35.55
2023-11-21T20:12:39.254Z,29.00
2023-11-21T20:15:07.476Z,36.53
2023-11-21T20:17:34.869Z,37.67
2023-11-21T20:20:02.376Z,33.67
2023-11-21T20:22:29.865Z,39.03
2023-11-21T20:24:58.177Z,37.47
2023-11-21T20:27:25.489Z,40.17
2023-11-21T20:29:52.830Z,38.67
2023-11-21T20:32:25.306Z,36.60
2023-11-21T20:34:54.261Z,36.45
2023-11-21T20:37:21.670Z,34.85
2023-11-21T20:39:50.044Z,36.17
2023-11-21T20:42:17.500Z,40.15
2023-11-21T20:44:44.831Z,40.15
2023-11-21T20:47:12.845Z,39.88
2023-11-21T20:49:48.069Z,33.70
2023-11-21T20:52:16.579Z,35.33
2023-11-21T20:54:45.627Z,31.52
2023-11-21T20:57:13.565Z,34.67
2023-11-21T20:59:40.894Z,38.10
2023-11-21T21:02:08.304Z,29.63
2023-11-21T21:04:35.683Z,40.40
2023-11-21T21:07:03.630Z,35.25
2023-11-21T21:09:31.120Z,36.55
2023-11-21T21:11:58.698Z,30.88
2023-11-21T21:14:30.182Z,35.25
2023-11-21T21:16:58.367Z,35.37
2023-11-21T21:19:29.042Z,41.75
2023-11-21T21:21:57.341Z,36.67
2023-11-21T21:24:24.716Z,39.35
2023-11-21T21:26:52.016Z,33.47
2023-11-21T21:29:21.626Z,38.23
2023-11-21T21:31:49.150Z,34.95
2023-11-21T21:34:18.075Z,35.38
2023-11-21T21:36:46.598Z,39.63
2023-11-21T21:39:15.034Z,38.42
2023-11-21T21:41:42.419Z,37.77
2023-11-21T21:44:09.898Z,34.03
2023-11-21T21:46:37.696Z,40.13
2023-11-21T21:49:05.441Z,35.17
2023-11-21T21:51:33.663Z,40.35
2023-11-21T21:54:01.032Z,40.07
2023-11-21T21:56:28.527Z,39.58
2023-11-21T21:58:58.091Z,39.08
2023-11-21T22:01:29.954Z,39.00
2023-11-21T22:03:57.485Z,36.92
2023-11-21T22:06:24.850Z,39.90
2023-11-21T22:08:52.200Z,38.40
2023-11-21T22:11:19.630Z,35.08
2023-11-21T22:13:47.037Z,40.13
2023-11-21T22:16:16.662Z,41.25
2023-11-21T22:18:44.356Z,38.23
2023-11-21T22:21:19.074Z,35.15
2023-11-21T22:23:46.395Z,41.95
2023-11-21T22:26:17.077Z,41.40
2023-11-21T22:28:44.444Z,44.75
2023-11-21T22:31:11.793Z,44.17
2023-11-21T22:33:39.714Z,42.53
2023-11-21T22:36:07.318Z,35.45
2023-11-21T22:38:34.742Z,40.53
2023-11-21T22:41:04.019Z,46.30
2023-11-21T22:43:32.301Z,38.17
2023-11-21T22:45:59.802Z,42.10
2023-11-21T22:48:28.308Z,38.75
2023-11-21T22:50:55.794Z,42.03
2023-11-21T22:53:23.217Z,52.30
2023-11-21T22:55:50.582Z,46.72
2023-11-21T22:58:18.010Z,49.05
2023-11-21T23:00:46.857Z,48.25
2023-11-21T23:03:14.506Z,52.50
2023-11-21T23:05:42.060Z,49.13
2023-11-21T23:08:10.400Z,47.47
2023-11-21T23:10:40.399Z,43.55
2023-11-21T23:13:09.477Z,45.08
2023-11-21T23:15:36.853Z,47.88
2023-11-21T23:18:06.300Z,48.90
2023-11-21T23:20:33.714Z,47.50
2023-11-21T23:23:01.038Z,46.80
2023-11-21T23:25:28.308Z,47.13
2023-11-21T23:27:55.696Z,51.78
2023-11-21T23:30:24.762Z,49.45
2023-11-21T23:32:52.167Z,51.87
2023-11-21T23:35:19.621Z,47.70
2023-11-21T23:37:46.998Z,54.38
2023-11-21T23:40:14.927Z,51.83
2023-11-21T23:42:42.262Z,46.58
2023-11-21T23:45:10.108Z,57.70
2023-11-21T23:47:37.499Z,52.60
2023-11-21T23:50:05.618Z,57.85
2023-11-21T23:52:33.027Z,51.00
2023-11-21T23:55:00.400Z,55.15
2023-11-21T23:57:27.776Z,46.75
2023-11-21T23:59:55.145Z,55.80
